Time;durP1;ratioP1;P1;durP2;ratioP2;P2;SDS_P1;SDS_P2;PMS_P1;PMS_P2;Temp;Humidity;BMP_temperature;BMP_pressure;BME280_temperature;BME280_humidity;BME280_pressure;Samples;Min_cycle;Max_cycle;Signal;HPM_P1;HPM_P2
2022/11/30 00:01:31;;;;;;;59.63;34.13;;;;;;;;;;6224742;28;20054;-72
2022/11/30 00:04:34;;;;;;;59.53;34.88;;;;;;;;;;6226035;28;20053;-72
2022/11/30 00:07:36;;;;;;;62.08;35.30;;;;;;;;;;6223165;28;20058;-72
2022/11/30 00:10:38;;;;;;;62.65;35.25;;;;;;;;;;6220521;28;20367;-71
2022/11/30 00:13:40;;;;;;;59.58;34.25;;;;;;;;;;6223849;28;20140;-72
2022/11/30 00:16:42;;;;;;;63.25;36.47;;;;;;;;;;6222904;28;20389;-73
2022/11/30 00:19:45;;;;;;;62.67;35.70;;;;;;;;;;6222451;28;20050;-73
2022/11/30 00:22:47;;;;;;;65.35;35.13;;;;;;;;;;6224050;28;20336;-72
2022/11/30 00:25:49;;;;;;;63.28;35.83;;;;;;;;;;6222127;28;20268;-73
2022/11/30 00:28:50;;;;;;;62.35;34.72;;;;;;;;;;6220264;28;20054;-73
2022/11/30 00:31:52;;;;;;;61.10;34.80;;;;;;;;;;6224273;28;20061;-72
2022/11/30 00:34:55;;;;;;;60.83;35.20;;;;;;;;;;6224191;28;20065;-72
2022/11/30 00:37:57;;;;;;;65.20;36.33;;;;;;;;;;6224341;28;20057;-73
2022/11/30 00:40:59;;;;;;;61.00;35.47;;;;;;;;;;6222764;28;20054;-72
2022/11/30 00:44:00;;;;;;;65.97;35.22;;;;;;;;;;6221863;28;20069;-72
2022/11/30 00:47:02;;;;;;;62.08;35.78;;;;;;;;;;6222042;28;20057;-72
2022/11/30 00:50:07;;;;;;;60.17;34.67;;;;;;;;;;6223173;28;20339;-72
2022/11/30 00:53:09;;;;;;;63.22;36.00;;;;;;;;;;6223821;28;20475;-72
2022/11/30 00:56:11;;;;;;;65.93;35.00;;;;;;;;;;6220398;28;20053;-72
2022/11/30 00:59:12;;;;;;;67.05;36.60;;;;;;;;;;6220378;28;20329;-73
2022/11/30 01:02:15;;;;;;;64.85;36.83;;;;;;;;;;6218927;28;20374;-73
2022/11/30 01:05:18;;;;;;;61.97;35.13;;;;;;;;;;6222286;28;20093;-73
2022/11/30 01:08:20;;;;;;;62.70;36.03;;;;;;;;;;6216543;28;20759;-72
2022/11/30 01:11:23;;;;;;;65.43;35.85;;;;;;;;;;6214594;28;20096;-72
2022/11/30 01:14:25;;;;;;;62.25;35.67;;;;;;;;;;6220554;28;20065;-72
2022/11/30 01:17:27;;;;;;;66.18;36.33;;;;;;;;;;6224304;28;20049;-71
2022/11/30 01:20:30;;;;;;;70.75;37.95;;;;;;;;;;6217013;28;20058;-71
2022/11/30 01:23:32;;;;;;;62.03;35.72;;;;;;;;;;6219824;28;20258;-72
2022/11/30 01:26:33;;;;;;;63.38;36.15;;;;;;;;;;6218552;28;20076;-71
2022/11/30 01:29:35;;;;;;;60.47;35.28;;;;;;;;;;6221817;28;20333;-72
2022/11/30 01:32:36;;;;;;;65.88;36.85;;;;;;;;;;6220851;28;20052;-73
2022/11/30 01:35:39;;;;;;;63.05;35.83;;;;;;;;;;6220425;28;20054;-74
2022/11/30 01:38:42;;;;;;;63.55;37.15;;;;;;;;;;6226793;28;20112;-73
2022/11/30 01:41:44;;;;;;;64.57;35.80;;;;;;;;;;6218640;28;20123;-72
2022/11/30 01:44:55;;;;;;;62.53;34.95;;;;;;;;;;6224628;28;20309;-73
2022/11/30 01:47:57;;;;;;;62.13;34.45;;;;;;;;;;6221163;28;20045;-73
2022/11/30 01:51:00;;;;;;;61.38;34.85;;;;;;;;;;6223589;28;20302;-76
2022/11/30 01:54:03;;;;;;;60.03;34.65;;;;;;;;;;6222755;28;20054;-75
2022/11/30 01:57:09;;;;;;;60.78;34.05;;;;;;;;;;6222425;28;20089;-73
2022/11/30 02:00:14;;;;;;;57.22;32.60;;;;;;;;;;6221146;28;20061;-75
2022/11/30 02:03:19;;;;;;;53.10;30.73;;;;;;;;;;6206816;28;20053;-74
2022/11/30 02:06:22;;;;;;;55.50;31.67;;;;;;;;;;6212656;28;20088;-75
2022/11/30 02:09:24;;;;;;;51.53;29.98;;;;;;;;;;6217294;28;20187;-74
2022/11/30 02:12:33;;;;;;;53.50;30.65;;;;;;;;;;6221175;28;20061;-74
2022/11/30 02:15:43;;;;;;;50.20;29.05;;;;;;;;;;6222614;28;20064;-75
2022/11/30 02:18:50;;;;;;;48.47;28.00;;;;;;;;;;6220426;28;20345;-73
2022/11/30 02:21:58;;;;;;;50.72;28.80;;;;;;;;;;6221249;28;20376;-74
2022/11/30 02:25:08;;;;;;;44.88;27.35;;;;;;;;;;6217310;28;20054;-74
2022/11/30 02:28:21;;;;;;;48.35;28.88;;;;;;;;;;6216619;28;20054;-74
2022/11/30 02:31:28;;;;;;;48.15;28.13;;;;;;;;;;6217834;28;20049;-73
2022/11/30 02:34:31;;;;;;;49.60;29.83;;;;;;;;;;6219034;28;20049;-75
2022/11/30 02:37:34;;;;;;;50.90;28.90;;;;;;;;;;6218169;28;20403;-74
2022/11/30 02:40:35;;;;;;;48.28;28.55;;;;;;;;;;6215289;28;20196;-74
2022/11/30 02:43:38;;;;;;;48.95;28.25;;;;;;;;;;6221914;28;20400;-74
2022/11/30 02:46:52;;;;;;;48.20;28.15;;;;;;;;;;6218877;28;20062;-74
2022/11/30 02:49:55;;;;;;;;;;;;;;;;;;6217862;28;20260;-74
2022/11/30 02:52:56;;;;;;;44.95;28.05;;;;;;;;;;6217565;28;20004;-73
2022/11/30 02:55:58;;;;;;;47.75;27.67;;;;;;;;;;6218027;28;20353;-74
2022/11/30 02:59:00;;;;;;;46.83;28.02;;;;;;;;;;6223421;28;20053;-74
2022/11/30 03:02:03;;;;;;;49.10;28.85;;;;;;;;;;6218713;28;20057;-74
2022/11/30 03:05:05;;;;;;;54.13;30.00;;;;;;;;;;6221335;28;20046;-74
2022/11/30 03:08:07;;;;;;;54.95;30.02;;;;;;;;;;6221546;28;20061;-74
2022/11/30 03:11:08;;;;;;;53.72;32.25;;;;;;;;;;6222894;28;20049;-74
2022/11/30 03:14:10;;;;;;;48.75;29.48;;;;;;;;;;6219658;28;20054;-73
2022/11/30 03:17:13;;;;;;;49.15;29.58;;;;;;;;;;6220601;28;20112;-74
2022/11/30 03:20:15;;;;;;;54.83;30.98;;;;;;;;;;6222574;28;20058;-75
2022/11/30 03:23:16;;;;;;;55.63;31.80;;;;;;;;;;6221110;28;20329;-74
2022/11/30 03:26:18;;;;;;;51.45;30.63;;;;;;;;;;6222524;28;20097;-74
2022/11/30 03:29:20;;;;;;;54.17;32.10;;;;;;;;;;6219553;28;20366;-74
2022/11/30 03:32:23;;;;;;;50.58;31.35;;;;;;;;;;6222328;28;20046;-73
2022/11/30 03:35:24;;;;;;;57.67;32.33;;;;;;;;;;6219140;28;20333;-73
2022/11/30 03:38:26;;;;;;;53.70;32.40;;;;;;;;;;6219111;28;20795;-73
2022/11/30 03:41:28;;;;;;;56.97;33.40;;;;;;;;;;6219641;28;20227;-73
2022/11/30 03:44:29;;;;;;;58.85;34.65;;;;;;;;;;6225551;28;20045;-74
2022/11/30 03:47:32;;;;;;;60.67;34.60;;;;;;;;;;6222297;28;20095;-74
2022/11/30 03:50:34;;;;;;;57.78;32.95;;;;;;;;;;6222710;28;20053;-73
2022/11/30 03:53:36;;;;;;;56.65;31.85;;;;;;;;;;6219447;28;20277;-73
2022/11/30 03:56:37;;;;;;;52.15;31.48;;;;;;;;;;6221201;28;20049;-74
2022/11/30 03:59:39;;;;;;;54.40;32.40;;;;;;;;;;6220593;28;20216;-74
2022/11/30 04:02:42;;;;;;;57.00;31.13;;;;;;;;;;6219468;28;20067;-73
2022/11/30 04:05:44;;;;;;;56.00;32.22;;;;;;;;;;6219076;28;20066;-74
2022/11/30 04:08:46;;;;;;;52.65;31.55;;;;;;;;;;6221314;28;20116;-74
2022/11/30 04:11:48;;;;;;;60.97;33.55;;;;;;;;;;6223484;28;20056;-74
2022/11/30 04:14:50;;;;;;;56.05;32.70;;;;;;;;;;6224890;28;20242;-75
2022/11/30 04:17:53;;;;;;;57.63;33.40;;;;;;;;;;6224651;28;20054;-74
2022/11/30 04:20:56;;;;;;;57.10;31.75;;;;;;;;;;6224713;28;20065;-74
2022/11/30 04:23:58;;;;;;;55.90;33.00;;;;;;;;;;6225870;28;20064;-74
2022/11/30 04:26:59;;;;;;;55.03;32.55;;;;;;;;;;6220591;28;20046;-74
2022/11/30 04:30:01;;;;;;;56.28;31.52;;;;;;;;;;6223857;28;20049;-74
2022/11/30 04:33:05;;;;;;;59.83;33.42;;;;;;;;;;6225120;28;20057;-74
2022/11/30 04:36:14;;;;;;;60.05;33.20;;;;;;;;;;6225771;28;20049;-74
2022/11/30 04:39:15;;;;;;;59.65;33.03;;;;;;;;;;6224497;28;20159;-74
2022/11/30 04:42:17;;;;;;;56.92;32.83;;;;;;;;;;6226335;28;20046;-74
2022/11/30 04:45:19;;;;;;;54.55;32.22;;;;;;;;;;6223691;28;20056;-74
2022/11/30 04:48:22;;;;;;;54.13;30.58;;;;;;;;;;6225266;28;20049;-74
2022/11/30 04:51:26;;;;;;;52.72;30.35;;;;;;;;;;6225770;28;20133;-74
2022/11/30 04:54:28;;;;;;;50.72;30.88;;;;;;;;;;6223800;28;20046;-74
2022/11/30 04:57:30;;;;;;;49.42;31.08;;;;;;;;;;6223688;28;20074;-74
2022/11/30 05:00:32;;;;;;;53.00;29.75;;;;;;;;;;6222992;28;20480;-74
2022/11/30 05:03:35;;;;;;;50.90;29.55;;;;;;;;;;6223712;28;20057;-74
2022/11/30 05:06:37;;;;;;;50.20;29.92;;;;;;;;;;6221947;28;20053;-74
2022/11/30 05:09:38;;;;;;;49.75;29.15;;;;;;;;;;6224468;28;20045;-74
2022/11/30 05:12:40;;;;;;;54.35;31.55;;;;;;;;;;6224258;28;20064;-74
2022/11/30 05:15:42;;;;;;;55.53;31.33;;;;;;;;;;6221162;28;20057;-73
2022/11/30 05:18:45;;;;;;;49.55;28.15;;;;;;;;;;6225885;28;20108;-74
2022/11/30 05:21:46;;;;;;;50.72;28.95;;;;;;;;;;6223491;28;20057;-75
2022/11/30 05:24:48;;;;;;;48.38;29.70;;;;;;;;;;6223053;28;20334;-74
2022/11/30 05:27:50;;;;;;;42.83;25.85;;;;;;;;;;6224077;28;20058;-74
2022/11/30 05:30:51;;;;;;;42.33;27.05;;;;;;;;;;6223605;28;20187;-74
2022/11/30 05:33:54;;;;;;;45.35;26.67;;;;;;;;;;6222458;28;20054;-74
2022/11/30 05:36:56;;;;;;;45.30;27.00;;;;;;;;;;6222479;28;20404;-74
2022/11/30 05:39:57;;;;;;;41.25;26.13;;;;;;;;;;6224115;28;20057;-74
2022/11/30 05:43:00;;;;;;;45.47;27.25;;;;;;;;;;6221313;28;20140;-74
2022/11/30 05:46:03;;;;;;;46.08;27.45;;;;;;;;;;6222636;28;20049;-72
2022/11/30 05:49:06;;;;;;;54.80;30.83;;;;;;;;;;6223936;28;20104;-74
2022/11/30 05:52:08;;;;;;;52.00;31.35;;;;;;;;;;6223496;28;20272;-77
2022/11/30 05:55:10;;;;;;;61.22;32.67;;;;;;;;;;6221878;28;20045;-76
2022/11/30 05:58:11;;;;;;;58.20;33.63;;;;;;;;;;6222652;28;20057;-77
2022/11/30 06:01:18;;;;;;;59.22;35.35;;;;;;;;;;6223178;28;20054;-78
2022/11/30 06:04:21;;;;;;;64.00;35.55;;;;;;;;;;6223036;28;20046;-71
2022/11/30 06:07:22;;;;;;;61.88;36.03;;;;;;;;;;6221343;28;20242;-78
2022/11/30 06:10:26;;;;;;;62.00;35.47;;;;;;;;;;6222617;28;20057;-74
2022/11/30 06:13:28;;;;;;;65.07;35.30;;;;;;;;;;6220954;28;20065;-74
2022/11/30 06:16:29;;;;;;;62.88;35.92;;;;;;;;;;6221643;28;20067;-75
2022/11/30 06:19:32;;;;;;;63.00;36.65;;;;;;;;;;6220436;28;20108;-74
2022/11/30 06:22:34;;;;;;;63.85;35.35;;;;;;;;;;6221540;28;20046;-74
2022/11/30 06:25:36;;;;;;;63.42;36.75;;;;;;;;;;6223169;28;20049;-75
2022/11/30 06:28:38;;;;;;;66.22;37.92;;;;;;;;;;6221163;28;20058;-74
2022/11/30 06:31:40;;;;;;;66.20;38.45;;;;;;;;;;6220743;28;20108;-74
2022/11/30 06:34:43;;;;;;;67.55;38.05;;;;;;;;;;6218870;28;20069;-74
2022/11/30 06:37:45;;;;;;;67.50;37.53;;;;;;;;;;6220589;28;21131;-74
2022/11/30 06:40:47;;;;;;;70.88;40.83;;;;;;;;;;6220302;28;20330;-74
2022/11/30 06:43:48;;;;;;;74.13;39.85;;;;;;;;;;6221093;28;20385;-74
2022/11/30 06:46:50;;;;;;;72.32;38.75;;;;;;;;;;6221883;28;20113;-74
2022/11/30 06:49:53;;;;;;;76.35;38.72;;;;;;;;;;6221044;28;20049;-73
2022/11/30 06:52:55;;;;;;;74.07;39.63;;;;;;;;;;6218885;28;20058;-74
2022/11/30 06:55:57;;;;;;;66.97;36.70;;;;;;;;;;6219343;28;20125;-74
2022/11/30 06:58:59;;;;;;;73.18;39.42;;;;;;;;;;6218311;28;20060;-74
2022/11/30 07:02:00;;;;;;;76.35;40.17;;;;;;;;;;6221850;28;20061;-73
2022/11/30 07:05:04;;;;;;;75.18;38.45;;;;;;;;;;6222505;28;20281;-73
2022/11/30 07:08:06;;;;;;;79.60;38.75;;;;;;;;;;6222757;28;20268;-73
2022/11/30 07:11:09;;;;;;;78.35;38.72;;;;;;;;;;6221207;28;20152;-73
2022/11/30 07:14:11;;;;;;;76.80;39.85;;;;;;;;;;6223377;28;20061;-73
2022/11/30 07:17:12;;;;;;;73.97;40.33;;;;;;;;;;6220879;28;20053;-76
2022/11/30 07:20:16;;;;;;;79.50;39.72;;;;;;;;;;6221264;28;20329;-74
2022/11/30 07:26:37;;;;;;;75.45;38.85;;;;;;;;;;6221992;28;20121;-75
2022/11/30 07:29:38;;;;;;;72.93;38.00;;;;;;;;;;6219407;28;20060;-75
2022/11/30 07:32:40;;;;;;;69.57;37.80;;;;;;;;;;6220283;28;20129;-75
2022/11/30 07:35:43;;;;;;;75.72;40.20;;;;;;;;;;6220856;28;20049;-75
2022/11/30 07:38:45;;;;;;;73.50;39.20;;;;;;;;;;6221773;28;20050;-73
2022/11/30 07:41:46;;;;;;;68.45;37.25;;;;;;;;;;6221920;28;20053;-74
2022/11/30 07:44:48;;;;;;;68.40;38.72;;;;;;;;;;6219136;28;20404;-73
2022/11/30 07:47:50;;;;;;;70.57;39.55;;;;;;;;;;6227309;28;20281;-73
2022/11/30 07:50:53;;;;;;;67.97;38.90;;;;;;;;;;6226839;28;20054;-73
2022/11/30 07:53:55;;;;;;;68.90;38.13;;;;;;;;;;6223769;28;20050;-74
2022/11/30 07:56:57;;;;;;;71.28;39.60;;;;;;;;;;6226703;28;20133;-72
2022/11/30 07:59:58;;;;;;;72.10;38.88;;;;;;;;;;6225255;28;20387;-73
2022/11/30 08:03:00;;;;;;;71.18;39.53;;;;;;;;;;6225670;28;20046;-73
2022/11/30 08:06:05;;;;;;;66.43;39.17;;;;;;;;;;6224942;28;20313;-74
2022/11/30 08:09:07;;;;;;;64.72;37.20;;;;;;;;;;6224366;28;20058;-73
2022/11/30 08:12:09;;;;;;;71.22;38.33;;;;;;;;;;6224235;28;20054;-74
2022/11/30 08:15:11;;;;;;;64.93;36.67;;;;;;;;;;6226402;28;20235;-74
2022/11/30 08:18:13;;;;;;;70.97;40.33;;;;;;;;;;6224615;28;20342;-73
2022/11/30 08:21:17;;;;;;;66.38;37.95;;;;;;;;;;6223391;28;20307;-74
2022/11/30 08:24:19;;;;;;;63.30;37.53;;;;;;;;;;6225396;28;20060;-74
2022/11/30 08:27:21;;;;;;;70.50;38.28;;;;;;;;;;6224594;28;20050;-74
2022/11/30 08:30:22;;;;;;;65.60;36.97;;;;;;;;;;6225533;28;20104;-74
2022/11/30 08:33:24;;;;;;;69.70;37.78;;;;;;;;;;6226324;28;20061;-74
2022/11/30 08:36:28;;;;;;;63.97;37.30;;;;;;;;;;6227513;28;20066;-74
2022/11/30 08:39:32;;;;;;;;;;;;;;;;;;6224365;28;20045;-74
2022/11/30 08:42:34;;;;;;;63.37;35.30;;;;;;;;;;6222194;28;19937;-73
2022/11/30 08:45:36;;;;;;;72.45;37.00;;;;;;;;;;6224175;28;20481;-74
2022/11/30 08:48:37;;;;;;;63.03;36.65;;;;;;;;;;6226308;28;20058;-74
2022/11/30 08:51:40;;;;;;;59.90;34.50;;;;;;;;;;6225409;28;20105;-74
2022/11/30 08:54:44;;;;;;;60.42;35.85;;;;;;;;;;6222136;28;20049;-74
2022/11/30 08:57:45;;;;;;;62.85;36.63;;;;;;;;;;6222437;28;20083;-74
2022/11/30 09:00:47;;;;;;;62.45;35.15;;;;;;;;;;6222462;28;20104;-74
2022/11/30 09:03:50;;;;;;;66.57;35.17;;;;;;;;;;6224092;28;20057;-74
2022/11/30 09:06:57;;;;;;;54.15;33.70;;;;;;;;;;6225014;28;20060;-74
2022/11/30 09:09:59;;;;;;;57.50;32.67;;;;;;;;;;6222107;28;20058;-74
2022/11/30 09:13:01;;;;;;;57.20;32.58;;;;;;;;;;6225809;28;20054;-73
2022/11/30 09:16:03;;;;;;;57.22;32.40;;;;;;;;;;6225542;28;20053;-74
2022/11/30 09:19:04;;;;;;;58.38;33.08;;;;;;;;;;6224359;28;20053;-74
2022/11/30 09:22:08;;;;;;;49.47;31.92;;;;;;;;;;6223286;28;20050;-74
2022/11/30 09:25:10;;;;;;;53.45;31.10;;;;;;;;;;6223320;28;20327;-73
2022/11/30 09:28:12;;;;;;;53.30;31.67;;;;;;;;;;6223462;28;20949;-74
2022/11/30 09:31:15;;;;;;;47.47;30.33;;;;;;;;;;6221826;28;20053;-73
2022/11/30 09:34:17;;;;;;;54.53;30.63;;;;;;;;;;6222539;28;20050;-73
2022/11/30 09:37:20;;;;;;;56.05;31.02;;;;;;;;;;6221839;28;20054;-73
2022/11/30 09:40:23;;;;;;;46.33;30.48;;;;;;;;;;6223638;28;20057;-74
2022/11/30 09:43:32;;;;;;;51.00;30.63;;;;;;;;;;6222527;28;20354;-74
2022/11/30 09:46:37;;;;;;;53.17;33.00;;;;;;;;;;6223154;28;20307;-74
2022/11/30 09:49:41;;;;;;;55.90;32.45;;;;;;;;;;6224132;28;20265;-74
2022/11/30 09:52:47;;;;;;;56.22;35.10;;;;;;;;;;6223365;28;20092;-72
2022/11/30 09:55:48;;;;;;;54.00;33.78;;;;;;;;;;6223691;28;20049;-73
2022/11/30 09:58:53;;;;;;;54.88;35.17;;;;;;;;;;6224413;28;20322;-72
2022/11/30 10:01:55;;;;;;;48.78;30.17;;;;;;;;;;6224020;28;20050;-73
2022/11/30 10:04:58;;;;;;;50.30;30.48;;;;;;;;;;6223209;28;20074;-73
2022/11/30 10:08:11;;;;;;;51.40;31.10;;;;;;;;;;6220163;28;20058;-73
2022/11/30 10:11:28;;;;;;;46.00;28.33;;;;;;;;;;6222665;28;20053;-73
2022/11/30 10:15:03;;;;;;;52.05;30.33;;;;;;;;;;6222883;28;20054;-73
2022/11/30 10:18:11;;;;;;;48.40;29.77;;;;;;;;;;6219672;28;20259;-73
2022/11/30 10:21:20;;;;;;;50.78;29.55;;;;;;;;;;6222698;28;21214;-74
2022/11/30 10:24:32;;;;;;;51.13;29.83;;;;;;;;;;6221743;28;20046;-73
2022/11/30 10:27:48;;;;;;;53.58;30.40;;;;;;;;;;6219699;28;20337;-73
2022/11/30 10:30:50;;;;;;;48.92;29.83;;;;;;;;;;6220814;28;20124;-74
2022/11/30 10:33:53;;;;;;;47.88;30.33;;;;;;;;;;6222182;28;20061;-73
2022/11/30 10:37:00;;;;;;;48.03;29.45;;;;;;;;;;6222340;28;20054;-73
2022/11/30 10:40:10;;;;;;;47.22;29.08;;;;;;;;;;6221258;28;20057;-73
2022/11/30 10:43:16;;;;;;;47.80;29.75;;;;;;;;;;6221343;28;20053;-73
2022/11/30 10:46:21;;;;;;;50.17;29.60;;;;;;;;;;6223437;28;20245;-73
2022/11/30 10:49:23;;;;;;;50.42;28.50;;;;;;;;;;6221010;28;20054;-73
2022/11/30 10:52:27;;;;;;;47.95;27.83;;;;;;;;;;6220224;28;20141;-73
2022/11/30 10:55:35;;;;;;;48.30;28.75;;;;;;;;;;6222109;28;20054;-73
2022/11/30 10:58:39;;;;;;;45.70;27.92;;;;;;;;;;6221520;28;20084;-73
2022/11/30 11:01:42;;;;;;;51.95;27.90;;;;;;;;;;6220603;28;20053;-74
2022/11/30 11:04:43;;;;;;;46.80;27.33;;;;;;;;;;6222179;28;20057;-74
2022/11/30 11:07:49;;;;;;;50.08;27.40;;;;;;;;;;6220790;28;20326;-74
2022/11/30 11:10:52;;;;;;;43.20;27.02;;;;;;;;;;6224153;28;20309;-74
2022/11/30 11:14:08;;;;;;;48.83;28.02;;;;;;;;;;6222509;28;20054;-74
2022/11/30 11:17:22;;;;;;;43.45;27.52;;;;;;;;;;6222152;28;20341;-73
2022/11/30 11:20:28;;;;;;;50.85;28.25;;;;;;;;;;6219096;28;20057;-74
2022/11/30 11:23:33;;;;;;;41.88;26.60;;;;;;;;;;6225679;28;20265;-73
2022/11/30 11:26:36;;;;;;;47.75;27.92;;;;;;;;;;6227794;28;20053;-74
2022/11/30 11:29:38;;;;;;;42.90;28.70;;;;;;;;;;6228710;28;20065;-74
2022/11/30 11:32:39;;;;;;;40.45;28.05;;;;;;;;;;6228638;28;20064;-74
2022/11/30 11:35:43;;;;;;;45.75;27.98;;;;;;;;;;6224637;28;20080;-73
2022/11/30 11:38:47;;;;;;;46.58;28.65;;;;;;;;;;6227544;28;20045;-71
2022/11/30 11:41:50;;;;;;;46.42;30.48;;;;;;;;;;6224958;28;20053;-74
2022/11/30 11:44:52;;;;;;;48.88;30.30;;;;;;;;;;6227006;28;20046;-73
2022/11/30 11:48:01;;;;;;;51.15;30.45;;;;;;;;;;6224561;28;20046;-73
2022/11/30 11:51:05;;;;;;;44.55;28.67;;;;;;;;;;6224569;28;20066;-74
2022/11/30 11:54:16;;;;;;;43.22;28.77;;;;;;;;;;6225097;28;20050;-73
2022/11/30 11:57:21;;;;;;;47.47;29.85;;;;;;;;;;6226619;28;20286;-73
2022/11/30 12:00:24;;;;;;;50.55;31.65;;;;;;;;;;6226636;28;20245;-71
2022/11/30 12:03:30;;;;;;;48.20;29.60;;;;;;;;;;6225383;28;20088;-73
2022/11/30 12:06:33;;;;;;;47.63;29.35;;;;;;;;;;6221958;28;20046;-73
2022/11/30 12:09:39;;;;;;;49.88;29.95;;;;;;;;;;6224099;28;20073;-73
2022/11/30 12:12:42;;;;;;;47.72;30.55;;;;;;;;;;6225087;28;20073;-73
2022/11/30 12:15:53;;;;;;;52.10;30.90;;;;;;;;;;6225107;28;20053;-72
2022/11/30 12:19:00;;;;;;;51.08;29.80;;;;;;;;;;6220829;28;20727;-73
2022/11/30 12:22:14;;;;;;;49.03;30.88;;;;;;;;;;6222085;28;20121;-73
2022/11/30 12:25:23;;;;;;;50.15;31.25;;;;;;;;;;6224334;28;20337;-73
2022/11/30 12:28:30;;;;;;;51.97;31.02;;;;;;;;;;6223737;28;20202;-73
2022/11/30 12:31:38;;;;;;;48.83;30.30;;;;;;;;;;6223557;28;20092;-73
2022/11/30 12:34:49;;;;;;;49.97;29.48;;;;;;;;;;6224524;28;20058;-74
2022/11/30 12:37:58;;;;;;;53.95;30.75;;;;;;;;;;6224101;28;20054;-73
2022/11/30 12:41:04;;;;;;;47.25;29.50;;;;;;;;;;6222253;28;20164;-75
2022/11/30 12:44:27;;;;;;;46.03;29.05;;;;;;;;;;6224660;28;20286;-73
2022/11/30 12:47:39;;;;;;;48.03;29.17;;;;;;;;;;6224315;28;20069;-73
2022/11/30 12:50:49;;;;;;;45.75;29.50;;;;;;;;;;6226899;28;20626;-75
2022/11/30 12:53:56;;;;;;;51.13;30.30;;;;;;;;;;6224785;28;20273;-76
2022/11/30 12:57:04;;;;;;;45.35;28.85;;;;;;;;;;6222645;28;20117;-73
2022/11/30 13:00:12;;;;;;;46.25;28.98;;;;;;;;;;6224637;28;20049;-74
2022/11/30 13:03:39;;;;;;;47.85;28.52;;;;;;;;;;6224490;28;20248;-73
2022/11/30 13:06:44;;;;;;;47.17;29.13;;;;;;;;;;6225050;28;20050;-75
2022/11/30 13:09:49;;;;;;;48.13;28.98;;;;;;;;;;6222139;28;20365;-73
2022/11/30 13:12:53;;;;;;;47.28;29.67;;;;;;;;;;6222582;28;20058;-73
2022/11/30 13:15:56;;;;;;;65.55;28.80;;;;;;;;;;6223597;28;20069;-73
2022/11/30 13:19:04;;;;;;;55.93;29.70;;;;;;;;;;6223075;28;20111;-72
2022/11/30 13:22:11;;;;;;;44.30;29.40;;;;;;;;;;6224093;28;20350;-73
2022/11/30 13:25:22;;;;;;;49.60;29.35;;;;;;;;;;6224393;28;20050;-73
2022/11/30 13:28:31;;;;;;;45.15;28.30;;;;;;;;;;6220179;28;20046;-73
2022/11/30 13:31:37;;;;;;;49.97;29.05;;;;;;;;;;6225315;28;20058;-73
2022/11/30 13:34:39;;;;;;;46.63;28.60;;;;;;;;;;6223208;28;20093;-73
2022/11/30 13:37:41;;;;;;;44.95;29.35;;;;;;;;;;6225062;28;20049;-73
2022/11/30 13:40:55;;;;;;;51.83;28.40;;;;;;;;;;6223574;28;20105;-73
2022/11/30 13:43:57;;;;;;;45.42;28.95;;;;;;;;;;6225884;28;20050;-73
2022/11/30 13:47:01;;;;;;;45.03;28.63;;;;;;;;;;6224989;28;20050;-73
2022/11/30 13:50:05;;;;;;;;;;;;;;;;;;6225114;28;20282;-73
2022/11/30 13:53:25;;;;;;;47.25;27.42;;;;;;;;;;6220407;28;20157;-73
2022/11/30 13:56:35;;;;;;;43.58;27.13;;;;;;;;;;6223080;28;20050;-75
2022/11/30 13:59:45;;;;;;;44.65;27.10;;;;;;;;;;6223688;28;20050;-75
2022/11/30 14:02:53;;;;;;;50.75;29.90;;;;;;;;;;6224677;28;20049;-75
2022/11/30 14:05:55;;;;;;;48.67;28.45;;;;;;;;;;6222417;28;20333;-73
2022/11/30 14:08:57;;;;;;;46.33;29.45;;;;;;;;;;6222163;28;20096;-76
2022/11/30 14:24:23;;;;;;;47.30;26.67;;;;;;;;;;6143550;28;20055;-75
2022/11/30 14:27:29;;;;;;;43.92;27.63;;;;;;;;;;6149532;28;20053;-75
2022/11/30 15:11:03;;;;;;;40.53;24.90;;;;;;;;;;5985033;29;20254;-77
2022/11/30 17:11:37;;;;;;;41.03;22.27;;;;;;;;;;6178562;28;20026;-73
2022/11/30 17:14:38;;;;;;;43.70;23.05;;;;;;;;;;6199156;28;20097;-73
2022/11/30 17:17:40;;;;;;;49.72;23.80;;;;;;;;;;6200831;28;20077;-74
2022/11/30 17:20:42;;;;;;;49.40;22.88;;;;;;;;;;6191082;28;20242;-72
2022/11/30 17:23:44;;;;;;;44.05;23.52;;;;;;;;;;6197466;28;20110;-74
2022/11/30 17:26:47;;;;;;;44.45;22.73;;;;;;;;;;6222503;28;20046;-71
2022/11/30 17:29:48;;;;;;;49.65;24.33;;;;;;;;;;6218922;28;20058;-73
2022/11/30 17:32:50;;;;;;;41.25;22.17;;;;;;;;;;6220769;28;20076;-74
2022/11/30 17:35:52;;;;;;;44.38;24.02;;;;;;;;;;6221955;28;20066;-74
2022/11/30 17:38:53;;;;;;;49.10;24.98;;;;;;;;;;6218917;28;20053;-70
2022/11/30 17:41:56;;;;;;;43.40;22.25;;;;;;;;;;6224825;28;20058;-73
2022/11/30 17:44:58;;;;;;;45.92;24.33;;;;;;;;;;6221460;28;20337;-70
2022/11/30 17:48:00;;;;;;;47.67;23.77;;;;;;;;;;6221812;28;20052;-72
2022/11/30 17:51:01;;;;;;;46.70;25.05;;;;;;;;;;6222644;28;20061;-71
2022/11/30 17:54:03;;;;;;;49.63;25.15;;;;;;;;;;6223288;28;20046;-71
2022/11/30 17:57:06;;;;;;;45.72;24.00;;;;;;;;;;6221802;28;20249;-72
2022/11/30 18:00:09;;;;;;;43.47;24.52;;;;;;;;;;6223364;28;20050;-72
2022/11/30 18:03:10;;;;;;;42.50;21.73;;;;;;;;;;6224457;28;20108;-71
2022/11/30 18:06:12;;;;;;;43.30;22.98;;;;;;;;;;6222702;28;20042;-72
2022/11/30 18:09:14;;;;;;;44.30;24.05;;;;;;;;;;6221736;28;20065;-72
2022/11/30 18:12:17;;;;;;;46.22;23.05;;;;;;;;;;6221355;28;20119;-72
2022/11/30 18:15:19;;;;;;;50.38;22.20;;;;;;;;;;6222575;28;20063;-74
2022/11/30 18:18:21;;;;;;;43.65;22.98;;;;;;;;;;6221000;28;20053;-71
2022/11/30 18:21:23;;;;;;;42.60;22.27;;;;;;;;;;6221448;28;20097;-72
2022/11/30 18:24:25;;;;;;;39.83;22.35;;;;;;;;;;6223760;28;20351;-73
2022/11/30 18:27:28;;;;;;;40.10;21.45;;;;;;;;;;6220764;28;20058;-73
2022/11/30 18:30:30;;;;;;;39.08;22.05;;;;;;;;;;6225676;28;20056;-73
2022/11/30 18:33:31;;;;;;;40.58;21.70;;;;;;;;;;6222559;28;20045;-73
2022/11/30 18:36:34;;;;;;;42.72;23.05;;;;;;;;;;6222452;28;20093;-73
2022/11/30 18:39:36;;;;;;;44.35;22.45;;;;;;;;;;6221546;28;20061;-72
2022/11/30 18:42:39;;;;;;;47.40;24.40;;;;;;;;;;6220774;28;20096;-72
2022/11/30 18:45:41;;;;;;;43.75;21.63;;;;;;;;;;6222623;28;20399;-73
2022/11/30 18:48:43;;;;;;;44.05;22.73;;;;;;;;;;6219999;28;20046;-77
2022/11/30 18:51:44;;;;;;;45.72;22.63;;;;;;;;;;6220175;28;20285;-75
2022/11/30 18:54:46;;;;;;;45.72;22.92;;;;;;;;;;6219188;28;20119;-75
2022/11/30 18:57:49;;;;;;;46.05;22.25;;;;;;;;;;6220253;28;20049;-73
2022/11/30 19:00:51;;;;;;;43.90;22.00;;;;;;;;;;6221547;28;20069;-72
2022/11/30 19:03:54;;;;;;;39.85;21.35;;;;;;;;;;6220090;28;20050;-67
2022/11/30 19:06:56;;;;;;;37.87;21.80;;;;;;;;;;6220444;28;20057;-73
2022/11/30 19:09:57;;;;;;;42.92;21.33;;;;;;;;;;6219996;28;20415;-76
2022/11/30 19:13:01;;;;;;;37.03;20.55;;;;;;;;;;6222279;28;20050;-73
2022/11/30 19:16:04;;;;;;;39.10;20.50;;;;;;;;;;6219690;28;20064;-75
2022/11/30 19:19:07;;;;;;;37.63;20.00;;;;;;;;;;6221248;28;20097;-75
2022/11/30 19:22:09;;;;;;;40.55;21.25;;;;;;;;;;6218485;28;20105;-74
2022/11/30 19:25:10;;;;;;;41.10;21.80;;;;;;;;;;6220944;28;20053;-76
2022/11/30 19:28:13;;;;;;;42.38;22.02;;;;;;;;;;6220318;28;20042;-76
2022/11/30 19:31:16;;;;;;;42.95;22.48;;;;;;;;;;6219482;28;20061;-74
2022/11/30 19:34:18;;;;;;;36.05;20.55;;;;;;;;;;6221887;28;20227;-75
2022/11/30 19:37:19;;;;;;;37.47;20.55;;;;;;;;;;6222207;28;20069;-74
2022/11/30 19:40:21;;;;;;;43.10;20.40;;;;;;;;;;6217926;28;20437;-73
2022/11/30 19:43:24;;;;;;;39.85;20.95;;;;;;;;;;6213936;28;20057;-76
2022/11/30 19:46:26;;;;;;;33.70;19.88;;;;;;;;;;6225654;28;20054;-74
2022/11/30 19:49:28;;;;;;;38.90;20.08;;;;;;;;;;6215520;28;20053;-76
2022/11/30 19:52:30;;;;;;;38.80;20.40;;;;;;;;;;6220787;28;20054;-76
2022/11/30 19:55:31;;;;;;;42.05;21.25;;;;;;;;;;6220512;28;20080;-77
2022/11/30 19:58:34;;;;;;;41.13;20.73;;;;;;;;;;6219249;28;20061;-70
2022/11/30 20:01:36;;;;;;;36.35;20.80;;;;;;;;;;6225677;28;20107;-74
2022/11/30 20:04:38;;;;;;;39.63;20.90;;;;;;;;;;6229938;28;20061;-75
2022/11/30 20:07:40;;;;;;;39.13;20.48;;;;;;;;;;6224456;28;20060;-74
2022/11/30 20:10:41;;;;;;;39.00;20.90;;;;;;;;;;6224161;28;20073;-72
2022/11/30 20:13:44;;;;;;;38.20;20.20;;;;;;;;;;6228939;28;20058;-70
2022/11/30 20:16:46;;;;;;;42.63;21.92;;;;;;;;;;6225018;28;20384;-73
2022/11/30 20:19:48;;;;;;;39.22;21.38;;;;;;;;;;6222508;28;20053;-73
2022/11/30 20:22:49;;;;;;;41.25;21.05;;;;;;;;;;6224097;28;20069;-74
2022/11/30 20:25:51;;;;;;;40.15;21.17;;;;;;;;;;6226911;28;20108;-76
2022/11/30 20:28:54;;;;;;;36.95;20.85;;;;;;;;;;6228866;28;20058;-76
2022/11/30 20:31:56;;;;;;;45.97;21.85;;;;;;;;;;6223930;28;20108;-74
2022/11/30 20:34:57;;;;;;;38.65;21.10;;;;;;;;;;6227087;28;20086;-76
2022/11/30 20:37:59;;;;;;;38.45;20.70;;;;;;;;;;6225921;28;20250;-76
2022/11/30 20:41:01;;;;;;;37.72;21.60;;;;;;;;;;6224305;28;20050;-75
2022/11/30 20:44:04;;;;;;;41.08;22.15;;;;;;;;;;6224805;28;20058;-76